Time;durP1;ratioP1;P1;durP2;ratioP2;P2;SDS_P1;SDS_P2;PMS_P1;PMS_P2;Temp;Humidity;BMP_temperature;BMP_pressure;BME280_temperature;BME280_humidity;BME280_pressure;Samples;Min_cycle;Max_cycle;Signal;HPM_P1;HPM_P2
2023/05/29 00:01:25;;;;;;;14.60;3.70;;;10.30;99.90;;;;;;4985552;28;20042;-77
2023/05/29 00:03:52;;;;;;;16.77;4.07;;;10.20;99.90;;;;;;5010835;28;20099;-77
2023/05/29 00:06:19;;;;;;;17.65;4.05;;;10.20;99.90;;;;;;5004369;28;20049;-77
2023/05/29 00:08:48;;;;;;;14.77;3.78;;;10.20;99.90;;;;;;5030672;28;20776;-77
2023/05/29 00:11:14;;;;;;;16.70;4.28;;;10.10;99.90;;;;;;5002445;28;20077;-77
2023/05/29 00:13:40;;;;;;;17.35;3.92;;;10.10;99.90;;;;;;5012111;28;20045;-76
2023/05/29 00:16:06;;;;;;;19.08;4.22;;;10.10;99.90;;;;;;4977661;28;20367;-75
2023/05/29 00:18:32;;;;;;;15.68;3.83;;;10.10;99.90;;;;;;5004758;28;20102;-75
2023/05/29 00:20:58;;;;;;;17.45;3.92;;;10.00;99.90;;;;;;4993737;28;20045;-75
2023/05/29 00:23:24;;;;;;;14.77;4.18;;;10.10;99.90;;;;;;5028694;28;20128;-75
2023/05/29 00:25:49;;;;;;;14.98;3.72;;;10.10;99.90;;;;;;4971739;28;20046;-75
2023/05/29 00:28:15;;;;;;;19.45;4.55;;;10.00;99.90;;;;;;4998623;28;20041;-76
2023/05/29 00:30:41;;;;;;;15.93;4.28;;;10.00;99.90;;;;;;4997767;28;20044;-76
2023/05/29 00:33:08;;;;;;;15.98;4.18;;;10.00;99.90;;;;;;5000001;28;20615;-76
2023/05/29 00:35:34;;;;;;;19.45;5.15;;;10.00;99.90;;;;;;4994149;28;20524;-75
2023/05/29 00:38:00;;;;;;;18.08;4.43;;;10.00;99.90;;;;;;4994045;28;20051;-76
2023/05/29 00:40:26;;;;;;;14.90;3.42;;;9.90;99.90;;;;;;4982440;28;20041;-76
2023/05/29 00:42:52;;;;;;;16.08;4.03;;;9.90;99.90;;;;;;5032236;28;20048;-77
2023/05/29 00:45:18;;;;;;;16.38;3.67;;;9.90;99.90;;;;;;4988360;28;20042;-76
2023/05/29 00:47:44;;;;;;;14.45;3.75;;;9.90;99.90;;;;;;4994922;28;20103;-77
2023/05/29 00:50:13;;;;;;;15.55;3.28;;;9.80;99.90;;;;;;4997831;28;20050;-78
2023/05/29 00:52:41;;;;;;;16.10;4.07;;;9.80;99.90;;;;;;4991752;28;20921;-74
2023/05/29 00:55:08;;;;;;;15.82;3.83;;;9.80;99.90;;;;;;5012308;28;20389;-75
2023/05/29 00:57:36;;;;;;;16.65;3.88;;;9.80;99.90;;;;;;5001314;28;20065;-74
2023/05/29 01:00:05;;;;;;;15.50;3.80;;;9.80;99.90;;;;;;4987262;28;20111;-74
2023/05/29 01:02:31;;;;;;;18.20;3.88;;;9.80;99.90;;;;;;4982141;28;20549;-75
2023/05/29 01:04:57;;;;;;;17.42;3.95;;;9.70;99.90;;;;;;5014421;28;20556;-75
2023/05/29 01:07:23;;;;;;;12.23;3.40;;;9.70;99.90;;;;;;4969605;28;20136;-76
2023/05/29 01:09:49;;;;;;;15.10;3.90;;;9.70;99.90;;;;;;4993183;28;20108;-77
2023/05/29 01:12:38;;;;;;;17.42;4.25;;;9.60;99.90;;;;;;4994025;28;20046;-75
2023/05/29 01:15:14;;;;;;;14.10;3.53;;;9.60;99.90;;;;;;5010074;28;20042;-76
2023/05/29 01:17:49;;;;;;;17.80;4.18;;;9.50;99.90;;;;;;4982577;28;20615;-76
2023/05/29 01:20:21;;;;;;;12.70;3.17;;;9.50;99.90;;;;;;5025704;28;20103;-76
2023/05/29 01:23:11;;;;;;;14.65;4.13;;;9.50;99.90;;;;;;5011921;28;20120;-76
2023/05/29 01:25:59;;;;;;;16.17;3.95;;;9.50;99.90;;;;;;5008744;28;20045;-76
2023/05/29 01:28:32;;;;;;;15.52;3.60;;;9.40;99.90;;;;;;5010451;28;21666;-75
2023/05/29 01:31:00;;;;;;;15.65;3.40;;;9.50;99.90;;;;;;5010895;28;20452;-75
2023/05/29 01:33:27;;;;;;;13.77;3.80;;;9.40;99.90;;;;;;5009179;28;20060;-75
2023/05/29 01:35:53;;;;;;;15.35;3.50;;;9.40;99.90;;;;;;4995925;28;20048;-74
2023/05/29 01:38:19;;;;;;;13.27;3.28;;;9.40;99.90;;;;;;4993463;28;20042;-77
2023/05/29 01:40:45;;;;;;;14.30;3.47;;;9.40;99.90;;;;;;4983391;28;20052;-75
2023/05/29 01:43:14;;;;;;;13.43;3.50;;;9.30;99.90;;;;;;4993602;28;20124;-75
2023/05/29 01:45:41;;;;;;;12.90;3.17;;;9.30;99.90;;;;;;4994134;28;20061;-75
2023/05/29 01:48:07;;;;;;;16.50;3.40;;;9.30;99.90;;;;;;4994229;28;20342;-76
2023/05/29 01:50:34;;;;;;;17.70;3.70;;;9.20;99.90;;;;;;5009855;28;20139;-75
2023/05/29 01:53:03;;;;;;;15.15;3.47;;;9.20;99.90;;;;;;5010076;28;20137;-74
2023/05/29 01:55:29;;;;;;;15.73;4.20;;;9.20;99.90;;;;;;4993068;28;20052;-75
2023/05/29 01:57:55;;;;;;;14.32;3.85;;;9.20;99.90;;;;;;4950939;28;20041;-76
2023/05/29 02:00:21;;;;;;;13.57;3.75;;;9.20;99.90;;;;;;4983147;28;20052;-75
2023/05/29 02:02:47;;;;;;;13.02;3.72;;;9.10;99.90;;;;;;4979115;28;20049;-76
2023/05/29 02:05:13;;;;;;;14.18;3.67;;;9.10;99.90;;;;;;5005431;28;20045;-76
2023/05/29 02:07:41;;;;;;;15.23;3.25;;;9.10;99.90;;;;;;5004995;28;20049;-76
2023/05/29 02:10:07;;;;;;;16.08;4.18;;;9.10;99.90;;;;;;5008001;28;20755;-76
2023/05/29 02:12:33;;;;;;;14.30;3.70;;;9.10;99.90;;;;;;4989037;28;21362;-76
2023/05/29 02:15:06;;;;;;;14.93;3.55;;;9.10;99.90;;;;;;5005867;28;20111;-77
2023/05/29 02:17:31;;;;;;;15.95;3.88;;;9.10;99.90;;;;;;4990071;28;20512;-76
2023/05/29 02:19:57;;;;;;;13.18;3.95;;;9.10;99.90;;;;;;4991742;28;20095;-75
2023/05/29 02:22:23;;;;;;;13.95;3.42;;;9.00;99.90;;;;;;5004017;28;20072;-75
2023/05/29 02:24:49;;;;;;;15.60;4.22;;;9.00;99.90;;;;;;5005726;28;20061;-76
2023/05/29 02:27:15;;;;;;;14.95;3.75;;;9.00;99.90;;;;;;4967237;28;20080;-76
2023/05/29 02:29:40;;;;;;;14.27;4.13;;;9.00;99.90;;;;;;5002574;28;20132;-76
2023/05/29 02:32:07;;;;;;;15.40;3.65;;;9.00;99.90;;;;;;4975934;28;21052;-77
2023/05/29 02:34:33;;;;;;;14.45;3.78;;;9.00;99.90;;;;;;4989389;28;20700;-77
2023/05/29 02:37:02;;;;;;;14.75;3.95;;;9.00;99.90;;;;;;4993702;28;20136;-77
2023/05/29 02:39:28;;;;;;;16.42;4.03;;;9.00;99.90;;;;;;4992046;28;20037;-77
2023/05/29 02:41:54;;;;;;;17.45;3.78;;;9.00;99.90;;;;;;4989576;28;20072;-76
2023/05/29 02:44:20;;;;;;;17.10;3.97;;;9.00;99.90;;;;;;4991333;28;20051;-76
2023/05/29 02:46:46;;;;;;;13.95;3.50;;;9.00;99.90;;;;;;5008541;28;20124;-76
2023/05/29 02:49:12;;;;;;;19.67;4.82;;;8.90;99.90;;;;;;4962490;28;20057;-76
2023/05/29 02:51:38;;;;;;;15.10;3.63;;;8.90;99.90;;;;;;4975064;28;20052;-77
2023/05/29 02:54:04;;;;;;;16.48;4.07;;;8.90;99.90;;;;;;4991351;28;20034;-77
2023/05/29 02:56:30;;;;;;;13.60;3.55;;;8.90;99.90;;;;;;4992761;28;20087;-77
2023/05/29 02:58:56;;;;;;;16.50;4.07;;;8.90;99.90;;;;;;4991083;28;20098;-77
2023/05/29 03:01:22;;;;;;;15.63;4.00;;;8.90;99.90;;;;;;4992214;28;20064;-76
2023/05/29 03:03:47;;;;;;;15.25;3.60;;;8.80;99.90;;;;;;5007441;28;20080;-76
2023/05/29 03:06:13;;;;;;;12.85;3.47;;;8.80;99.90;;;;;;5005887;28;20037;-76
2023/05/29 03:08:45;;;;;;;12.80;3.25;;;8.80;99.90;;;;;;4989696;28;20046;-77
2023/05/29 03:11:11;;;;;;;21.65;4.25;;;8.80;99.90;;;;;;4976262;28;20147;-76
2023/05/29 03:13:38;;;;;;;15.82;3.58;;;8.80;99.90;;;;;;4989963;28;20147;-76
2023/05/29 03:16:04;;;;;;;14.15;3.50;;;8.80;99.90;;;;;;4991958;28;20041;-75
2023/05/29 03:18:30;;;;;;;17.67;3.88;;;8.70;99.90;;;;;;5004974;28;20046;-76
2023/05/29 03:20:56;;;;;;;17.38;4.05;;;8.60;99.90;;;;;;4991494;28;20050;-76
2023/05/29 03:23:25;;;;;;;17.63;4.07;;;8.60;99.90;;;;;;5006253;28;20081;-76
2023/05/29 03:25:51;;;;;;;13.70;4.07;;;8.50;99.90;;;;;;5005243;28;20394;-76
2023/05/29 03:28:20;;;;;;;13.43;3.42;;;8.50;99.90;;;;;;5004780;28;20052;-76
2023/05/29 03:30:49;;;;;;;12.32;3.80;;;8.50;99.90;;;;;;5001833;28;20041;-76
2023/05/29 03:33:14;;;;;;;17.08;4.32;;;8.50;99.90;;;;;;4991450;28;20457;-76
2023/05/29 03:35:40;;;;;;;12.55;3.60;;;8.40;99.90;;;;;;5006232;28;20133;-76
2023/05/29 03:38:07;;;;;;;13.63;3.92;;;8.40;99.90;;;;;;5006868;28;20141;-76
2023/05/29 03:40:33;;;;;;;14.40;3.92;;;8.40;99.90;;;;;;5004140;28;20053;-76
2023/05/29 03:42:59;;;;;;;14.70;4.03;;;8.40;99.90;;;;;;5006201;28;20748;-76
2023/05/29 03:45:25;;;;;;;14.05;3.85;;;8.40;99.90;;;;;;4973103;28;21436;-77
2023/05/29 03:47:51;;;;;;;12.68;3.50;;;8.50;99.90;;;;;;5006588;28;20128;-76
2023/05/29 03:50:17;;;;;;;13.20;3.83;;;8.50;99.90;;;;;;4978943;28;20080;-76
2023/05/29 03:52:42;;;;;;;15.57;3.30;;;8.40;99.90;;;;;;4990142;28;20155;-77
2023/05/29 03:55:12;;;;;;;18.67;5.03;;;8.40;99.90;;;;;;4975864;28;20046;-76
2023/05/29 03:57:42;;;;;;;16.48;4.32;;;8.40;99.90;;;;;;4985354;28;21522;-76
2023/05/29 04:00:11;;;;;;;12.95;3.65;;;8.30;99.90;;;;;;5009834;28;20076;-76
2023/05/29 04:02:41;;;;;;;16.23;3.85;;;8.30;99.90;;;;;;5009609;28;20037;-76
2023/05/29 04:05:09;;;;;;;18.25;4.22;;;8.40;99.90;;;;;;4984899;28;20103;-76
2023/05/29 04:07:38;;;;;;;13.43;3.80;;;8.40;99.90;;;;;;4992797;28;20660;-75
2023/05/29 04:10:06;;;;;;;22.10;4.38;;;8.50;99.90;;;;;;5008867;28;20055;-76
2023/05/29 04:12:32;;;;;;;17.25;3.95;;;8.50;99.90;;;;;;4989853;28;20445;-76
2023/05/29 04:14:59;;;;;;;16.30;4.30;;;8.50;99.90;;;;;;5009253;28;20052;-76
2023/05/29 04:17:25;;;;;;;12.77;3.83;;;8.50;99.90;;;;;;4980927;28;20033;-75
2023/05/29 04:19:51;;;;;;;14.27;3.67;;;8.50;99.90;;;;;;5008079;28;20057;-77
2023/05/29 04:22:17;;;;;;;13.45;3.67;;;8.50;99.90;;;;;;5008607;28;20511;-76
2023/05/29 04:24:42;;;;;;;21.17;4.72;;;8.50;99.90;;;;;;4994169;28;20096;-76
2023/05/29 04:27:12;;;;;;;13.13;3.20;;;8.50;99.90;;;;;;4977628;28;20041;-76
2023/05/29 04:29:44;;;;;;;14.75;3.58;;;8.60;99.90;;;;;;4976415;28;20045;-76
2023/05/29 04:32:13;;;;;;;14.23;4.10;;;8.70;99.90;;;;;;5011740;28;20127;-76
2023/05/29 04:34:39;;;;;;;16.33;4.10;;;8.70;99.90;;;;;;4990334;28;20145;-76
2023/05/29 04:37:05;;;;;;;12.82;3.45;;;8.70;99.90;;;;;;5010106;28;20041;-76
2023/05/29 04:39:32;;;;;;;15.45;4.25;;;8.80;99.90;;;;;;5009577;28;20060;-77
2023/05/29 04:42:00;;;;;;;12.15;3.28;;;8.80;99.90;;;;;;5007093;28;20064;-77
2023/05/29 04:44:26;;;;;;;12.63;3.78;;;8.80;99.90;;;;;;5009774;28;20096;-77
2023/05/29 04:46:53;;;;;;;13.07;3.58;;;8.80;99.90;;;;;;4991374;28;20144;-76
2023/05/29 04:49:20;;;;;;;15.02;4.00;;;8.90;99.90;;;;;;5008984;28;20745;-77
2023/05/29 04:51:46;;;;;;;14.85;3.80;;;8.90;99.90;;;;;;5005501;28;20042;-76
2023/05/29 04:54:12;;;;;;;14.88;4.03;;;9.00;99.90;;;;;;5009245;28;20072;-78
2023/05/29 04:56:42;;;;;;;13.95;3.28;;;9.00;99.90;;;;;;5006946;28;20053;-76
2023/05/29 04:59:08;;;;;;;14.63;3.90;;;9.00;99.90;;;;;;4995664;28;20397;-77
2023/05/29 05:01:34;;;;;;;12.85;3.85;;;9.00;99.90;;;;;;4992400;28;20042;-77
2023/05/29 05:04:01;;;;;;;14.57;4.03;;;9.10;99.90;;;;;;5009055;28;20056;-77
2023/05/29 05:06:27;;;;;;;12.52;3.53;;;9.10;99.90;;;;;;5005441;28;20160;-77
2023/05/29 05:08:53;;;;;;;14.30;3.65;;;9.20;99.90;;;;;;4991469;28;20151;-76
2023/05/29 05:11:20;;;;;;;15.38;4.07;;;9.20;99.90;;;;;;5007020;28;20084;-77
2023/05/29 05:13:46;;;;;;;18.08;4.45;;;9.30;99.90;;;;;;5006513;28;20037;-76
2023/05/29 05:16:12;;;;;;;14.30;3.85;;;9.20;99.90;;;;;;4976351;28;20048;-76
2023/05/29 05:18:39;;;;;;;16.08;4.38;;;9.30;99.90;;;;;;5005249;28;20053;-76
2023/05/29 05:21:06;;;;;;;13.75;3.50;;;9.40;99.90;;;;;;4967870;28;21596;-77
2023/05/29 05:23:32;;;;;;;16.70;4.05;;;9.50;99.90;;;;;;4976854;28;20049;-76
2023/05/29 05:25:58;;;;;;;15.68;3.70;;;9.60;99.90;;;;;;4991857;28;20077;-77
2023/05/29 05:28:24;;;;;;;15.63;3.80;;;9.60;99.90;;;;;;5008229;28;20037;-78
2023/05/29 05:30:51;;;;;;;15.35;3.65;;;9.70;99.90;;;;;;4991622;28;20504;-77
2023/05/29 05:33:16;;;;;;;14.13;4.05;;;9.70;99.90;;;;;;4958084;28;20172;-77
2023/05/29 05:35:45;;;;;;;16.75;3.85;;;9.70;99.90;;;;;;4993002;28;20050;-77
2023/05/29 05:38:14;;;;;;;11.18;3.20;;;9.80;99.90;;;;;;5007240;28;20053;-77
2023/05/29 05:40:40;;;;;;;12.63;3.80;;;9.90;99.90;;;;;;4984572;28;20479;-77
2023/05/29 05:43:06;;;;;;;14.88;3.78;;;9.90;99.90;;;;;;4990168;28;20076;-77
2023/05/29 05:45:32;;;;;;;15.55;3.95;;;10.00;99.90;;;;;;4991371;28;20049;-76
2023/05/29 05:47:58;;;;;;;12.75;3.30;;;10.10;99.90;;;;;;4974044;28;20460;-77
2023/05/29 05:50:24;;;;;;;14.32;4.20;;;10.20;99.90;;;;;;5006996;28;20056;-77
2023/05/29 05:52:53;;;;;;;16.23;3.75;;;10.30;99.90;;;;;;4990516;28;20046;-76
2023/05/29 05:55:19;;;;;;;16.52;4.30;;;10.40;99.90;;;;;;5007891;28;20053;-76
2023/05/29 05:57:45;;;;;;;15.05;3.65;;;10.40;99.90;;;;;;4989153;28;20069;-78
2023/05/29 06:00:12;;;;;;;13.43;3.53;;;10.50;99.90;;;;;;4989964;28;20049;-78
2023/05/29 06:02:41;;;;;;;17.23;4.68;;;10.60;99.90;;;;;;4990696;28;20124;-77
2023/05/29 06:05:07;;;;;;;15.68;4.03;;;10.60;99.90;;;;;;4993113;28;20048;-76
2023/05/29 06:07:33;;;;;;;18.13;4.30;;;10.70;99.90;;;;;;4976735;28;20564;-77
2023/05/29 06:10:03;;;;;;;15.88;3.97;;;10.80;99.90;;;;;;4975215;28;21263;-78
2023/05/29 06:12:29;;;;;;;17.42;4.47;;;10.80;99.90;;;;;;4980886;28;20041;-78
2023/05/29 06:14:55;;;;;;;14.38;3.30;;;10.90;99.90;;;;;;4989879;28;20034;-77
2023/05/29 06:17:21;;;;;;;14.38;4.57;;;10.90;99.90;;;;;;4946569;28;20567;-77
2023/05/29 06:19:47;;;;;;;15.35;4.38;;;11.00;99.90;;;;;;5004637;28;20056;-77
2023/05/29 06:22:15;;;;;;;18.27;4.25;;;11.10;99.90;;;;;;5007485;28;20037;-76
2023/05/29 06:24:41;;;;;;;14.07;4.13;;;11.20;99.90;;;;;;5004882;28;20045;-77
2023/05/29 06:27:07;;;;;;;16.27;4.18;;;11.30;99.90;;;;;;5005808;28;20077;-77
2023/05/29 06:29:33;;;;;;;12.57;3.67;;;11.30;99.90;;;;;;5004440;28;20752;-78
2023/05/29 06:32:00;;;;;;;15.73;4.88;;;11.40;99.90;;;;;;4970924;28;20041;-76
2023/05/29 06:34:27;;;;;;;19.45;4.50;;;11.40;99.90;;;;;;4946453;28;20429;-79
2023/05/29 06:36:52;;;;;;;16.08;4.53;;;11.50;99.90;;;;;;5005452;28;20041;-77
2023/05/29 06:39:19;;;;;;;14.25;4.07;;;11.50;99.90;;;;;;5001910;28;20050;-76
2023/05/29 06:41:46;;;;;;;15.27;4.18;;;11.50;99.90;;;;;;4988961;28;20065;-76
2023/05/29 06:44:11;;;;;;;14.80;3.92;;;11.60;99.90;;;;;;5004012;28;20082;-77
2023/05/29 06:46:37;;;;;;;16.50;4.32;;;11.60;99.90;;;;;;4986787;28;20149;-75
2023/05/29 06:49:05;;;;;;;15.88;4.25;;;11.60;99.90;;;;;;4978092;28;20053;-78
2023/05/29 06:51:32;;;;;;;15.23;4.55;;;11.70;99.90;;;;;;5001760;28;20289;-76
2023/05/29 06:53:58;;;;;;;12.95;4.03;;;11.70;99.90;;;;;;4985128;28;20398;-76
2023/05/29 06:56:24;;;;;;;15.45;4.43;;;11.70;99.90;;;;;;5002466;28;20048;-76
2023/05/29 06:58:49;;;;;;;14.18;4.03;;;11.80;99.90;;;;;;4988257;28;20240;-76
2023/05/29 07:01:16;;;;;;;16.23;4.25;;;11.90;99.90;;;;;;4986002;28;21530;-76
2023/05/29 07:03:43;;;;;;;17.00;4.28;;;12.00;99.90;;;;;;4961837;28;20123;-76
2023/05/29 07:06:08;;;;;;;16.23;4.53;;;12.00;99.90;;;;;;4976887;28;21002;-76
2023/05/29 07:08:34;;;;;;;18.17;5.32;;;12.00;99.90;;;;;;5004770;28;20041;-77
2023/05/29 07:11:01;;;;;;;14.73;4.38;;;12.00;99.90;;;;;;4980101;28;20045;-77
2023/05/29 07:13:27;;;;;;;20.52;5.70;;;12.00;99.90;;;;;;5005069;28;20092;-76
2023/05/29 07:15:53;;;;;;;15.65;4.30;;;12.10;99.90;;;;;;5004352;28;20128;-76
2023/05/29 07:18:19;;;;;;;16.42;4.50;;;12.20;99.90;;;;;;4986349;28;20052;-76
2023/05/29 07:20:45;;;;;;;15.57;4.70;;;12.20;99.90;;;;;;5004611;28;20084;-75
2023/05/29 07:23:10;;;;;;;17.42;4.65;;;12.30;99.90;;;;;;5003304;28;20838;-76
2023/05/29 07:25:36;;;;;;;14.68;4.35;;;12.40;99.90;;;;;;5005292;28;20413;-75
2023/05/29 07:28:02;;;;;;;14.60;4.60;;;12.40;99.90;;;;;;5003201;28;20152;-76
2023/05/29 07:30:28;;;;;;;15.07;4.10;;;12.50;99.90;;;;;;4975976;28;20826;-75
2023/05/29 07:32:54;;;;;;;14.50;3.90;;;12.70;99.90;;;;;;5007544;28;20053;-76
2023/05/29 07:35:20;;;;;;;17.45;4.50;;;12.70;99.90;;;;;;4989846;28;20092;-75
2023/05/29 07:37:47;;;;;;;17.27;4.72;;;12.90;99.90;;;;;;4992349;28;20155;-75
2023/05/29 07:40:13;;;;;;;16.08;4.25;;;13.00;99.90;;;;;;5007919;28;20057;-75
2023/05/29 07:42:39;;;;;;;15.55;4.38;;;13.00;99.90;;;;;;5008933;28;20115;-74
2023/05/29 07:45:08;;;;;;;15.45;4.72;;;13.00;99.90;;;;;;4990197;28;20054;-75
2023/05/29 07:47:34;;;;;;;19.02;4.68;;;13.10;99.90;;;;;;4976605;28;20259;-76
2023/05/29 07:50:00;;;;;;;18.02;4.47;;;13.10;99.90;;;;;;4991752;28;20044;-76
2023/05/29 07:52:26;;;;;;;14.95;4.25;;;13.20;99.90;;;;;;4992735;28;20045;-77
2023/05/29 07:54:52;;;;;;;11.18;3.83;;;13.20;99.90;;;;;;4989453;28;20709;-76
2023/05/29 07:57:18;;;;;;;18.55;5.55;;;13.20;99.90;;;;;;5007806;28;20038;-76
2023/05/29 07:59:44;;;;;;;14.65;4.78;;;13.20;99.90;;;;;;4981453;28;20037;-77
2023/05/29 08:02:10;;;;;;;20.75;4.97;;;13.30;99.90;;;;;;4976216;28;21285;-76
2023/05/29 08:04:36;;;;;;;14.27;4.50;;;13.40;99.90;;;;;;5006803;28;20869;-76
2023/05/29 08:07:05;;;;;;;18.13;4.72;;;13.50;99.90;;;;;;5006637;28;20042;-76
2023/05/29 08:09:32;;;;;;;18.42;4.47;;;13.60;99.90;;;;;;5007544;28;21606;-77
2023/05/29 08:12:00;;;;;;;19.60;4.60;;;13.60;99.90;;;;;;4990900;28;20048;-76
2023/05/29 08:14:26;;;;;;;20.10;4.35;;;13.60;99.90;;;;;;5005143;28;20505;-76
2023/05/29 08:16:52;;;;;;;16.33;4.53;;;13.50;99.90;;;;;;4992393;28;20916;-77
2023/05/29 08:19:21;;;;;;;16.20;4.28;;;13.60;99.90;;;;;;5008694;28;20057;-75
2023/05/29 08:21:47;;;;;;;15.85;4.32;;;13.60;99.90;;;;;;5006866;28;21159;-77
2023/05/29 08:24:14;;;;;;;14.15;3.90;;;13.60;99.90;;;;;;5003518;28;20179;-77
2023/05/29 08:26:39;;;;;;;18.80;5.03;;;13.80;99.90;;;;;;5019687;28;20277;-75
2023/05/29 08:29:05;;;;;;;14.98;4.30;;;13.90;99.90;;;;;;4975941;28;20976;-78
2023/05/29 08:31:31;;;;;;;16.77;4.35;;;13.90;99.90;;;;;;5007578;28;20631;-75
2023/05/29 08:33:57;;;;;;;14.98;4.50;;;13.90;99.90;;;;;;4992380;28;20630;-77
2023/05/29 08:36:25;;;;;;;18.42;4.80;;;13.90;99.90;;;;;;4979485;28;20463;-75
2023/05/29 08:38:51;;;;;;;14.55;4.18;;;13.90;99.90;;;;;;5006967;28;20050;-77
2023/05/29 08:41:23;;;;;;;15.57;4.75;;;14.00;99.90;;;;;;4990324;28;20125;-77
2023/05/29 08:43:50;;;;;;;13.13;3.83;;;14.00;99.90;;;;;;5007885;28;20445;-75
2023/05/29 08:46:19;;;;;;;19.58;4.80;;;14.10;99.90;;;;;;4989750;28;20049;-77
2023/05/29 08:48:55;;;;;;;19.35;4.72;;;14.20;99.90;;;;;;5005318;28;20057;-76
2023/05/29 08:51:29;;;;;;;19.80;4.70;;;14.20;99.90;;;;;;5008139;28;20045;-76
2023/05/29 08:53:58;;;;;;;18.95;5.22;;;14.20;99.90;;;;;;4991221;28;20042;-74
2023/05/29 08:56:23;;;;;;;15.05;4.05;;;14.20;99.90;;;;;;5007141;28;20048;-76
2023/05/29 08:58:50;;;;;;;14.13;4.90;;;14.30;99.90;;;;;;4978306;28;20206;-76
2023/05/29 09:01:17;;;;;;;17.35;3.83;;;14.30;99.90;;;;;;5005716;28;20081;-75
2023/05/29 09:03:43;;;;;;;16.20;4.10;;;14.30;99.90;;;;;;4990007;28;20049;-75
2023/05/29 09:06:09;;;;;;;16.13;4.68;;;14.30;99.90;;;;;;5008184;28;20041;-76
2023/05/29 09:08:36;;;;;;;20.90;5.35;;;14.30;98.80;;;;;;5009568;28;20126;-76
2023/05/29 09:11:02;;;;;;;13.48;4.35;;;14.30;99.70;;;;;;4980065;28;20060;-77
2023/05/29 09:13:31;;;;;;;17.00;5.22;;;14.40;99.90;;;;;;4950359;28;20079;-77
2023/05/29 09:16:03;;;;;;;15.18;4.72;;;14.30;99.90;;;;;;5008212;28;20132;-79
2023/05/29 09:18:32;;;;;;;14.25;4.00;;;14.30;99.00;;;;;;4976058;28;20271;-77
2023/05/29 09:20:58;;;;;;;18.40;5.22;;;14.30;98.70;;;;;;4988925;28;20053;-77
2023/05/29 09:23:29;;;;;;;12.95;4.15;;;14.30;99.10;;;;;;5004202;28;20111;-77
2023/05/29 09:25:55;;;;;;;14.73;4.25;;;14.30;98.70;;;;;;4971102;28;20104;-76
2023/05/29 09:28:23;;;;;;;14.85;4.38;;;14.30;99.90;;;;;;5022282;28;20045;-77
2023/05/29 09:30:49;;;;;;;16.25;4.25;;;14.40;99.90;;;;;;4989455;28;20049;-76
2023/05/29 09:33:16;;;;;;;17.42;4.05;;;14.50;99.90;;;;;;5005810;28;20185;-77
2023/05/29 09:35:44;;;;;;;19.60;4.85;;;14.60;99.90;;;;;;5024774;28;20037;-75
2023/05/29 09:38:19;;;;;;;18.10;4.47;;;14.70;99.90;;;;;;5004234;28;20564;-75
2023/05/29 09:40:46;;;;;;;15.85;4.82;;;14.80;98.20;;;;;;4988419;28;21071;-74
2023/05/29 09:43:19;;;;;;;15.93;3.97;;;14.80;98.30;;;;;;5004765;28;20057;-76
2023/05/29 09:45:47;;;;;;;18.30;4.95;;;14.80;98.90;;;;;;4984924;28;20053;-77
2023/05/29 09:48:15;;;;;;;15.52;4.10;;;14.80;97.40;;;;;;5006228;28;20571;-77
2023/05/29 09:50:44;;;;;;;13.40;4.13;;;14.70;97.70;;;;;;5006095;28;20483;-77
2023/05/29 09:53:27;;;;;;;20.27;5.68;;;14.70;97.80;;;;;;4984984;28;20057;-77
2023/05/29 09:55:54;;;;;;;20.45;4.90;;;14.70;98.10;;;;;;5005732;28;20045;-77
2023/05/29 09:58:24;;;;;;;18.63;4.43;;;14.70;98.90;;;;;;4985378;28;20718;-76
2023/05/29 10:00:53;;;;;;;14.73;4.00;;;14.80;98.40;;;;;;5002186;28;20049;-77
2023/05/29 10:03:23;;;;;;;11.98;4.15;;;14.90;98.50;;;;;;5018777;28;20045;-77
2023/05/29 10:05:51;;;;;;;13.55;3.78;;;15.00;98.80;;;;;;5004460;28;20524;-77
2023/05/29 10:08:20;;;;;;;13.23;3.95;;;15.10;98.70;;;;;;4972614;28;20084;-76
2023/05/29 10:10:53;;;;;;;16.23;5.65;;;15.20;97.50;;;;;;4990062;28;20041;-78
2023/05/29 10:13:23;;;;;;;17.75;5.15;;;15.20;96.90;;;;;;5003288;28;20053;-77
2023/05/29 10:15:51;;;;;;;12.50;3.72;;;15.20;97.50;;;;;;4972059;28;20875;-77
2023/05/29 10:18:26;;;;;;;14.25;4.10;;;15.30;97.40;;;;;;5000295;28;20049;-75
2023/05/29 10:38:21;;;;;;;16.75;4.40;;;15.30;94.70;;;;;;5078760;27;2210637;-73
2023/05/29 10:40:47;;;;;;;14.15;4.30;;;15.40;96.60;;;;;;5101628;27;20051;-75
2023/05/29 10:43:44;;;;;;;16.95;4.32;;;15.50;93.90;;;;;;5100976;27;20051;-73
2023/05/29 10:46:10;;;;;;;14.10;3.92;;;15.60;93.00;;;;;;5088555;27;20079;-73
2023/05/29 10:48:42;;;;;;;13.68;4.35;;;15.40;92.10;;;;;;5100808;27;20193;-75
2023/05/29 10:51:23;;;;;;;20.23;4.63;;;15.30;92.30;;;;;;5082097;27;20077;-74
2023/05/29 10:53:50;;;;;;;16.23;4.13;;;15.30;93.50;;;;;;5097740;27;20038;-76
2023/05/29 10:56:26;;;;;;;14.05;4.70;;;15.40;94.10;;;;;;5098876;27;20042;-75
2023/05/29 10:58:57;;;;;;;12.93;3.78;;;15.60;94.80;;;;;;5102451;27;20107;-76
2023/05/29 11:01:27;;;;;;;20.13;4.32;;;15.70;95.10;;;;;;5115058;27;20141;-75
2023/05/29 11:04:20;;;;;;;14.82;4.40;;;15.90;95.30;;;;;;5101658;27;20046;-76
2023/05/29 11:06:47;;;;;;;15.95;4.60;;;16.00;94.50;;;;;;5103613;27;20077;-77
2023/05/29 11:09:35;;;;;;;16.05;5.15;;;16.10;94.40;;;;;;5116661;27;20532;-75
2023/05/29 11:12:33;;;;;;;13.73;4.28;;;16.20;92.10;;;;;;5111737;27;20890;-75
2023/05/29 11:15:14;;;;;;;16.58;4.63;;;16.20;90.90;;;;;;5113376;27;20083;-76
2023/05/29 11:17:40;;;;;;;16.75;4.10;;;16.30;92.80;;;;;;5117567;27;20401;-75
2023/05/29 11:20:26;;;;;;;14.00;4.30;;;16.40;91.10;;;;;;5100258;27;20050;-75
2023/05/29 11:23:03;;;;;;;13.50;4.07;;;16.40;90.30;;;;;;5099663;27;20551;-75
2023/05/29 11:25:34;;;;;;;11.88;3.30;;;16.40;89.00;;;;;;5117920;27;20058;-73
2023/05/29 11:28:07;;;;;;;15.90;4.03;;;16.40;89.40;;;;;;5118336;27;20287;-75
2023/05/29 11:30:44;;;;;;;14.98;4.55;;;16.50;89.20;;;;;;5099975;27;20075;-76
2023/05/29 11:33:19;;;;;;;16.63;3.95;;;16.60;89.30;;;;;;5088230;27;20138;-75
2023/05/29 11:35:46;;;;;;;11.02;3.88;;;16.70;88.30;;;;;;5103121;27;20130;-76
2023/05/29 11:38:12;;;;;;;13.45;3.90;;;16.80;85.50;;;;;;5086523;27;20184;-75
2023/05/29 11:40:38;;;;;;;15.77;3.53;;;16.80;84.00;;;;;;5098805;27;20133;-75
2023/05/29 11:43:04;;;;;;;12.98;4.07;;;16.70;82.70;;;;;;5116430;27;20997;-75
2023/05/29 11:45:33;;;;;;;15.80;4.40;;;16.60;83.80;;;;;;5113549;27;20082;-76
2023/05/29 11:48:03;;;;;;;13.48;3.92;;;16.60;84.70;;;;;;5094305;27;20034;-75
2023/05/29 11:50:31;;;;;;;16.48;4.53;;;16.50;86.70;;;;;;5087190;27;20286;-73
2023/05/29 11:52:57;;;;;;;15.38;4.30;;;16.50;87.70;;;;;;5069634;27;20523;-75
2023/05/29 11:55:25;;;;;;;13.38;4.00;;;16.60;89.30;;;;;;5104796;27;20047;-78
2023/05/29 11:57:55;;;;;;;16.42;4.35;;;16.60;88.60;;;;;;5069339;27;20291;-77
2023/05/29 12:00:21;;;;;;;12.77;3.90;;;16.60;88.40;;;;;;5103453;27;20207;-74
2023/05/29 12:02:49;;;;;;;14.10;3.72;;;16.60;86.70;;;;;;5086311;27;20368;-74
2023/05/29 12:05:18;;;;;;;11.32;3.30;;;16.70;85.60;;;;;;5102946;27;20318;-72
2023/05/29 12:07:50;;;;;;;14.75;4.03;;;16.70;84.50;;;;;;5082003;27;20590;-74
2023/05/29 12:10:18;;;;;;;15.20;4.53;;;16.70;87.00;;;;;;5074673;27;20058;-74
2023/05/29 12:13:02;;;;;;;12.00;4.00;;;16.80;87.40;;;;;;5086991;27;20167;-74
2023/05/29 12:15:29;;;;;;;16.70;4.38;;;16.90;85.10;;;;;;5101063;27;21035;-73
2023/05/29 12:17:57;;;;;;;14.23;3.83;;;16.90;84.80;;;;;;5052286;27;20542;-74
2023/05/29 12:20:26;;;;;;;14.32;3.67;;;16.90;85.60;;;;;;5071354;27;20052;-74
2023/05/29 12:22:53;;;;;;;10.25;3.65;;;17.00;86.80;;;;;;5067439;27;20047;-75
2023/05/29 12:25:22;;;;;;;16.95;4.80;;;17.00;86.10;;;;;;5069961;27;20064;-75
2023/05/29 12:27:49;;;;;;;12.75;3.78;;;17.00;86.20;;;;;;5104595;27;20047;-74
2023/05/29 12:30:18;;;;;;;11.38;3.13;;;17.00;85.90;;;;;;5101972;27;20103;-75
2023/05/29 12:32:46;;;;;;;13.98;3.80;;;17.00;85.40;;;;;;5103452;27;20069;-74
2023/05/29 12:35:15;;;;;;;14.60;3.90;;;17.00;85.00;;;;;;5085939;27;20053;-73
2023/05/29 12:37:58;;;;;;;13.68;4.07;;;17.00;83.80;;;;;;5102160;27;20094;-74
2023/05/29 12:40:30;;;;;;;17.40;3.45;;;17.00;84.80;;;;;;5082454;27;20123;-73
2023/05/29 12:43:09;;;;;;;12.25;3.65;;;17.10;85.50;;;;;;5097191;27;20098;-73
2023/05/29 12:45:35;;;;;;;11.48;3.45;;;17.20;84.50;;;;;;5084174;27;20057;-74
2023/05/29 12:48:11;;;;;;;12.52;3.90;;;17.10;86.60;;;;;;5080524;27;20046;-74
2023/05/29 12:50:40;;;;;;;13.50;3.80;;;17.20;83.20;;;;;;5068792;27;20066;-74
2023/05/29 12:53:14;;;;;;;17.58;4.40;;;17.10;82.20;;;;;;5101675;27;20051;-73
2023/05/29 12:55:41;;;;;;;14.65;3.35;;;17.00;83.30;;;;;;5103804;27;20061;-73
2023/05/29 12:58:12;;;;;;;13.73;3.95;;;17.10;82.90;;;;;;5081675;27;20035;-73
2023/05/29 13:00:44;;;;;;;11.55;3.45;;;17.10;80.70;;;;;;5083471;27;20042;-73
2023/05/29 13:03:11;;;;;;;13.27;3.50;;;17.10;80.50;;;;;;5082953;27;20049;-75